createdAt,value
2019-05-07T00:01:17.564Z,99.90
2019-05-07T00:03:47.134Z,99.90
2019-05-07T00:06:16.672Z,99.90
2019-05-07T00:08:46.203Z,99.90
2019-05-07T00:11:15.755Z,99.90
2019-05-07T00:13:45.289Z,99.90
2019-05-07T00:16:14.872Z,99.90
2019-05-07T00:18:44.356Z,99.90
2019-05-07T00:21:13.919Z,99.90
2019-05-07T00:23:43.485Z,99.90
2019-05-07T00:26:13.283Z,99.90
2019-05-07T00:28:43.403Z,99.90
2019-05-07T00:31:13.351Z,99.90
2019-05-07T00:33:43.376Z,99.90
2019-05-07T00:36:32.377Z,99.90
2019-05-07T00:39:13.062Z,99.90
2019-05-07T00:41:47.976Z,99.90
2019-05-07T00:44:17.788Z,99.90
2019-05-07T00:46:47.418Z,99.90
2019-05-07T00:49:17.028Z,99.90
2019-05-07T00:51:47.844Z,99.90
2019-05-07T00:54:17.380Z,99.90
2019-05-07T00:56:46.948Z,99.90
2019-05-07T00:59:16.484Z,99.90
2019-05-07T01:01:46.050Z,99.90
2019-05-07T01:04:15.594Z,99.90
2019-05-07T01:06:45.161Z,99.90
2019-05-07T01:09:14.674Z,99.90
2019-05-07T01:11:44.252Z,99.90
2019-05-07T01:14:13.747Z,99.90
2019-05-07T01:16:43.308Z,99.90
2019-05-07T01:19:12.830Z,99.90
2019-05-07T01:21:43.274Z,99.90
2019-05-07T01:24:12.911Z,99.90
2019-05-07T01:26:42.719Z,99.90
2019-05-07T01:29:12.834Z,99.90
2019-05-07T01:31:57.192Z,99.90
2019-05-07T01:34:36.315Z,99.90
2019-05-07T01:37:05.820Z,99.90
2019-05-07T01:39:35.349Z,99.90
2019-05-07T01:42:04.905Z,99.90
2019-05-07T01:44:34.455Z,99.90
2019-05-07T01:47:04.009Z,99.90
2019-05-07T01:49:33.554Z,99.90
2019-05-07T01:52:03.611Z,99.90
2019-05-07T01:54:33.577Z,99.90
2019-05-07T01:57:03.166Z,99.90
2019-05-07T01:59:32.930Z,99.90
2019-05-07T02:02:09.051Z,99.90
2019-05-07T02:04:52.159Z,99.90
2019-05-07T02:07:28.870Z,99.90
2019-05-07T02:10:09.114Z,99.90
2019-05-07T02:12:39.310Z,99.90
2019-05-07T02:15:09.061Z,99.90
2019-05-07T02:17:38.597Z,99.90
2019-05-07T02:20:08.247Z,99.90
2019-05-07T02:22:37.766Z,99.90
2019-05-07T02:25:07.313Z,99.90
2019-05-07T02:27:36.862Z,99.90
2019-05-07T02:30:06.781Z,99.90
2019-05-07T02:32:36.344Z,99.90
2019-05-07T02:35:06.038Z,99.90
2019-05-07T02:37:51.277Z,99.90
2019-05-07T02:40:25.985Z,99.90
2019-05-07T02:42:55.508Z,99.90
2019-05-07T02:45:45.799Z,99.90
2019-05-07T02:48:16.873Z,99.90
2019-05-07T02:50:55.570Z,99.90
2019-05-07T02:53:34.383Z,99.90
2019-05-07T02:56:04.020Z,99.90
2019-05-07T02:58:33.543Z,99.90
2019-05-07T03:01:04.816Z,99.90
2019-05-07T03:03:34.333Z,99.90
2019-05-07T03:06:03.871Z,99.90
2019-05-07T03:08:33.503Z,99.90
2019-05-07T03:11:03.505Z,99.90
2019-05-07T03:13:33.869Z,99.90
2019-05-07T03:16:03.958Z,99.90
2019-05-07T03:18:33.879Z,99.90
2019-05-07T03:21:12.719Z,99.90
2019-05-07T03:23:49.838Z,99.90
2019-05-07T03:26:23.117Z,99.90
2019-05-07T03:28:54.544Z,99.90
2019-05-07T03:31:56.430Z,99.90
2019-05-07T03:34:50.806Z,99.90
2019-05-07T03:37:23.626Z,99.90
2019-05-07T03:39:53.864Z,99.90
2019-05-07T03:42:23.697Z,99.90
2019-05-07T03:45:03.634Z,99.90
2019-05-07T03:47:37.395Z,99.90
2019-05-07T03:50:09.895Z,99.90
2019-05-07T03:52:42.600Z,99.90
2019-05-07T03:55:14.151Z,99.90
2019-05-07T03:57:43.722Z,99.90
2019-05-07T04:00:13.418Z,99.90
2019-05-07T04:02:43.828Z,99.90
2019-05-07T04:05:14.442Z,99.90
2019-05-07T04:07:44.174Z,99.90
2019-05-07T04:10:15.389Z,99.90
2019-05-07T04:12:44.981Z,99.90
2019-05-07T04:15:18.851Z,99.90
2019-05-07T04:17:45.664Z,99.90
2019-05-07T04:20:15.422Z,99.90
2019-05-07T04:22:44.988Z,99.90
2019-05-07T04:25:34.581Z,99.90
2019-05-07T04:28:09.688Z,99.90
2019-05-07T04:30:39.516Z,99.90
2019-05-07T04:33:13.142Z,99.90
2019-05-07T04:36:03.871Z,99.90
2019-05-07T04:38:33.628Z,99.90
2019-05-07T04:41:03.845Z,99.90
2019-05-07T04:43:33.836Z,99.90
2019-05-07T04:46:03.582Z,99.90
2019-05-07T04:48:33.990Z,99.90
2019-05-07T04:51:05.503Z,99.90
2019-05-07T04:53:35.050Z,99.90
2019-05-07T04:56:04.595Z,99.90
2019-05-07T04:58:34.135Z,99.90
2019-05-07T05:01:04.797Z,99.90
2019-05-07T05:03:38.622Z,99.90
2019-05-07T05:06:05.638Z,99.90
2019-05-07T05:08:35.179Z,99.90
2019-05-07T05:11:04.816Z,99.90
2019-05-07T05:13:34.403Z,99.90
2019-05-07T05:16:23.440Z,99.90
2019-05-07T05:18:53.105Z,99.90
2019-05-07T05:21:44.610Z,99.90
2019-05-07T05:24:18.370Z,99.90
2019-05-07T05:26:47.968Z,99.90
2019-05-07T05:29:17.987Z,99.90
2019-05-07T05:31:47.509Z,99.90
2019-05-07T05:34:17.084Z,99.90
2019-05-07T05:36:46.597Z,99.90
2019-05-07T05:39:16.116Z,99.90
2019-05-07T05:41:47.221Z,99.90
2019-05-07T05:44:31.851Z,99.90
2019-05-07T05:47:02.401Z,99.90
2019-05-07T05:49:32.266Z,99.90
2019-05-07T05:52:15.257Z,99.90
2019-05-07T05:55:06.479Z,99.90
2019-05-07T05:57:55.311Z,99.90
2019-05-07T06:00:46.819Z,99.90
2019-05-07T06:03:33.929Z,99.90
2019-05-07T06:06:22.384Z,99.90
2019-05-07T06:09:16.958Z,99.90
2019-05-07T06:11:59.377Z,99.90
2019-05-07T06:14:33.830Z,99.90
2019-05-07T06:17:28.321Z,99.90
2019-05-07T06:20:22.794Z,99.90
2019-05-07T06:23:09.830Z,99.60
2019-05-07T06:25:39.899Z,99.30
2019-05-07T06:28:09.464Z,94.90
2019-05-07T06:30:38.986Z,92.60
2019-05-07T06:33:08.524Z,98.10
2019-05-07T06:35:38.034Z,91.40
2019-05-07T06:38:09.066Z,91.30
2019-05-07T06:41:06.379Z,90.80
2019-05-07T06:43:46.066Z,89.20
2019-05-07T06:46:15.600Z,86.20
2019-05-07T06:48:46.289Z,87.70
2019-05-07T06:51:17.526Z,83.10
2019-05-07T06:53:47.216Z,84.80
2019-05-07T06:56:16.782Z,78.60
2019-05-07T06:59:02.200Z,79.40
2019-05-07T07:01:52.831Z,81.30
2019-05-07T07:04:26.046Z,81.90
2019-05-07T07:07:08.116Z,83.40
2019-05-07T07:09:59.392Z,81.20
2019-05-07T07:12:30.075Z,78.20
2019-05-07T07:14:59.738Z,70.90
2019-05-07T07:17:29.286Z,72.40
2019-05-07T07:19:58.859Z,80.00
2019-05-07T07:22:28.403Z,75.30
2019-05-07T07:24:57.913Z,76.40
2019-05-07T07:27:27.437Z,71.90
2019-05-07T07:30:07.205Z,63.80
2019-05-07T07:32:38.823Z,68.20
2019-05-07T07:35:12.866Z,63.00
2019-05-07T07:37:42.966Z,61.30
2019-05-07T07:40:36.587Z,64.90
2019-05-07T07:43:07.100Z,67.70
2019-05-07T07:45:37.016Z,59.50
2019-05-07T07:48:06.511Z,57.90
2019-05-07T07:50:36.023Z,58.50
2019-05-07T07:53:05.608Z,55.50
2019-05-07T07:55:42.488Z,54.40
2019-05-07T07:58:18.072Z,59.30
2019-05-07T08:01:03.406Z,54.10
2019-05-07T08:03:33.070Z,51.70
2019-05-07T08:06:02.581Z,54.00
2019-05-07T08:08:32.205Z,54.90
2019-05-07T08:11:02.397Z,52.30
2019-05-07T08:13:32.513Z,54.20
2019-05-07T08:16:02.565Z,55.20
2019-05-07T08:18:32.761Z,54.70
2019-05-07T08:21:02.591Z,56.70
2019-05-07T08:23:32.193Z,57.70
2019-05-07T08:26:02.516Z,57.90
2019-05-07T08:28:32.168Z,64.50
2019-05-07T08:31:36.335Z,61.00
2019-05-07T08:34:39.576Z,63.50
2019-05-07T08:37:09.103Z,58.50
2019-05-07T08:39:38.652Z,55.50
2019-05-07T08:42:08.331Z,48.00
2019-05-07T08:44:59.696Z,52.10
2019-05-07T08:47:37.867Z,49.10
2019-05-07T08:50:08.659Z,49.20
2019-05-07T08:52:38.276Z,46.90
2019-05-07T08:55:08.159Z,49.80
2019-05-07T08:57:37.797Z,48.20
2019-05-07T09:00:07.747Z,53.00
2019-05-07T09:02:37.279Z,45.00
2019-05-07T09:05:09.218Z,45.50
2019-05-07T09:07:38.339Z,44.30
2019-05-07T09:10:08.055Z,44.10
2019-05-07T09:12:37.616Z,45.80
2019-05-07T09:15:07.259Z,53.90
2019-05-07T09:17:36.808Z,44.90
2019-05-07T09:20:09.133Z,43.20
2019-05-07T09:22:37.727Z,44.90
2019-05-07T09:25:07.875Z,41.40
2019-05-07T09:27:42.422Z,43.70
2019-05-07T09:30:24.899Z,46.70
2019-05-07T09:33:02.504Z,47.70
2019-05-07T09:35:39.648Z,47.20
2019-05-07T09:38:07.931Z,45.80
2019-05-07T09:40:37.450Z,46.10
2019-05-07T09:43:07.035Z,48.00
2019-05-07T09:45:36.537Z,49.90
2019-05-07T09:48:06.219Z,49.20
2019-05-07T09:50:35.745Z,52.20
2019-05-07T09:53:12.768Z,53.20
2019-05-07T09:55:45.681Z,52.30
2019-05-07T09:58:15.267Z,52.10
2019-05-07T10:00:44.889Z,49.50
2019-05-07T10:03:14.665Z,53.60
2019-05-07T10:05:44.182Z,50.90
2019-05-07T10:08:13.849Z,51.70
2019-05-07T10:10:44.905Z,51.80
2019-05-07T10:13:32.989Z,55.60
2019-05-07T10:16:04.260Z,57.20
2019-05-07T10:18:42.570Z,53.30
2019-05-07T10:21:12.759Z,56.80
2019-05-07T10:23:42.355Z,56.20
2019-05-07T10:26:12.149Z,54.40
2019-05-07T10:28:42.505Z,56.00
2019-05-07T10:31:11.981Z,52.80
2019-05-07T10:33:42.191Z,55.50
2019-05-07T10:36:12.501Z,57.20
2019-05-07T10:38:42.267Z,54.30
2019-05-07T10:41:12.216Z,53.40
2019-05-07T10:43:42.865Z,51.80
2019-05-07T10:46:34.123Z,55.40
2019-05-07T10:49:13.531Z,54.40
2019-05-07T10:51:43.098Z,53.80
2019-05-07T10:54:12.678Z,53.60
2019-05-07T10:56:42.315Z,52.50
2019-05-07T10:59:12.285Z,52.50
2019-05-07T11:01:52.052Z,54.20
2019-05-07T11:04:22.242Z,52.60
2019-05-07T11:06:52.293Z,52.40
2019-05-07T11:09:22.232Z,53.20
2019-05-07T11:11:51.943Z,57.40
2019-05-07T11:14:21.788Z,57.00
2019-05-07T11:17:03.450Z,55.40
2019-05-07T11:19:32.998Z,53.90
2019-05-07T11:22:02.527Z,54.10
2019-05-07T11:24:32.156Z,55.40
2019-05-07T11:27:02.405Z,53.10
2019-05-07T11:29:32.770Z,53.70
2019-05-07T11:32:03.260Z,53.40
2019-05-07T11:34:36.747Z,52.30
2019-05-07T11:37:06.334Z,51.80
2019-05-07T11:39:35.854Z,52.80
2019-05-07T11:42:30.343Z,51.20
2019-05-07T11:45:02.065Z,52.30
2019-05-07T11:47:32.659Z,56.00
2019-05-07T11:50:25.184Z,53.80
2019-05-07T11:52:57.880Z,52.60
2019-05-07T11:55:27.458Z,58.10
2019-05-07T11:57:57.030Z,50.50
2019-05-07T12:00:37.386Z,47.90
2019-05-07T12:03:06.921Z,45.40
2019-05-07T12:05:36.470Z,48.10
2019-05-07T12:08:06.030Z,47.20
2019-05-07T12:10:35.650Z,46.20
2019-05-07T12:13:05.182Z,46.70
2019-05-07T12:15:34.703Z,45.60
2019-05-07T12:18:04.360Z,46.80
2019-05-07T12:20:33.894Z,48.60
2019-05-07T12:23:03.418Z,47.60
2019-05-07T12:25:32.975Z,45.40
2019-05-07T12:28:02.765Z,45.60
2019-05-07T12:30:51.626Z,46.40
2019-05-07T12:33:39.630Z,46.30
2019-05-07T12:36:12.425Z,48.90
2019-05-07T12:38:41.811Z,46.50
2019-05-07T12:41:28.832Z,46.90
2019-05-07T12:43:59.028Z,49.60
2019-05-07T12:46:28.908Z,51.70
2019-05-07T12:48:58.474Z,51.60
2019-05-07T12:51:34.525Z,49.50
2019-05-07T12:54:18.313Z,47.80
2019-05-07T12:56:47.807Z,49.20
2019-05-07T12:59:17.325Z,53.30
2019-05-07T13:02:26.676Z,51.60
2019-05-07T13:04:45.785Z,47.60
2019-05-07T13:07:32.608Z,46.60
2019-05-07T13:10:02.631Z,48.50
2019-05-07T13:12:32.301Z,46.80
2019-05-07T13:15:02.995Z,48.80
2019-05-07T13:17:33.788Z,49.70
2019-05-07T13:20:03.401Z,48.60
2019-05-07T13:22:32.968Z,51.60
2019-05-07T13:25:02.559Z,49.00
2019-05-07T13:27:32.123Z,48.00
2019-05-07T13:30:02.583Z,48.40
2019-05-07T13:32:34.363Z,47.90
2019-05-07T13:35:04.050Z,45.90
2019-05-07T13:37:35.517Z,46.20
2019-05-07T13:40:42.503Z,46.60
2019-05-07T13:43:18.559Z,49.10
2019-05-07T13:45:55.439Z,48.50
2019-05-07T13:48:25.411Z,49.50
2019-05-07T13:50:55.229Z,49.50
2019-05-07T13:53:24.932Z,50.40
2019-05-07T13:55:54.460Z,51.30
2019-05-07T13:58:24.005Z,48.20
2019-05-07T14:01:12.606Z,47.00
2019-05-07T14:03:42.328Z,48.00
2019-05-07T14:06:13.544Z,50.20
2019-05-07T14:08:44.773Z,52.00
2019-05-07T14:11:14.324Z,50.30
2019-05-07T14:13:43.869Z,49.70
2019-05-07T14:16:13.934Z,50.40
2019-05-07T14:18:43.443Z,50.80
2019-05-07T14:21:13.187Z,50.20
2019-05-07T14:23:42.868Z,49.00
2019-05-07T14:26:12.473Z,50.90
2019-05-07T14:28:42.373Z,53.50
2019-05-07T14:31:12.312Z,51.20
2019-05-07T14:34:05.676Z,51.30
2019-05-07T14:36:42.639Z,50.80
2019-05-07T14:39:12.184Z,51.30
2019-05-07T14:41:42.738Z,50.30
2019-05-07T14:44:14.562Z,52.10
2019-05-07T14:46:50.844Z,53.60
2019-05-07T14:49:15.377Z,53.30
2019-05-07T14:51:45.132Z,52.70
2019-05-07T14:54:14.768Z,52.10
2019-05-07T14:56:44.513Z,51.30
2019-05-07T14:59:14.054Z,52.20
2019-05-07T15:01:43.611Z,54.20
2019-05-07T15:04:13.297Z,54.00
2019-05-07T15:06:42.808Z,53.40
2019-05-07T15:09:12.336Z,53.70
2019-05-07T15:11:42.462Z,54.30
2019-05-07T15:14:12.412Z,55.00
2019-05-07T15:16:42.642Z,54.50
2019-05-07T15:19:12.625Z,53.30
2019-05-07T15:21:42.756Z,52.70
2019-05-07T15:24:14.165Z,54.50
2019-05-07T15:26:43.821Z,54.60
2019-05-07T15:29:14.336Z,56.20
2019-05-07T15:32:03.218Z,57.50
2019-05-07T15:34:32.884Z,55.50
2019-05-07T15:37:02.504Z,53.60
2019-05-07T15:39:32.825Z,55.20
2019-05-07T15:42:02.430Z,56.00
2019-05-07T15:44:31.965Z,55.70
2019-05-07T15:47:04.109Z,54.70
2019-05-07T15:49:33.675Z,55.10
2019-05-07T15:52:05.693Z,55.20
2019-05-07T15:54:35.273Z,55.50
2019-05-07T15:57:07.047Z,54.50
2019-05-07T15:59:36.589Z,53.50
2019-05-07T16:02:22.637Z,52.70
2019-05-07T16:04:52.201Z,53.10
2019-05-07T16:07:22.491Z,52.90
2019-05-07T16:09:52.586Z,52.50
2019-05-07T16:12:22.796Z,53.70
2019-05-07T16:14:52.593Z,54.70
2019-05-07T16:17:35.567Z,55.20
2019-05-07T16:20:05.292Z,54.30
2019-05-07T16:22:38.692Z,54.80
2019-05-07T16:25:08.279Z,55.50
2019-05-07T16:27:42.436Z,56.80
2019-05-07T16:30:14.273Z,55.60
2019-05-07T16:32:44.035Z,54.30
2019-05-07T16:35:16.147Z,55.40
2019-05-07T16:37:44.895Z,54.80
2019-05-07T16:40:14.526Z,55.20
2019-05-07T16:42:44.061Z,55.10
2019-05-07T16:45:13.922Z,55.90
2019-05-07T16:47:43.446Z,58.20
2019-05-07T16:50:15.077Z,58.20
2019-05-07T16:52:44.612Z,58.20
2019-05-07T16:55:14.212Z,56.90
2019-05-07T16:58:02.193Z,57.50
2019-05-07T17:00:38.555Z,57.60
2019-05-07T17:03:11.707Z,57.70
2019-05-07T17:05:42.872Z,57.50
2019-05-07T17:08:26.267Z,58.10
2019-05-07T17:10:55.822Z,59.10
2019-05-07T17:13:25.378Z,58.60
2019-05-07T17:15:56.126Z,58.90
2019-05-07T17:18:27.110Z,59.70
2019-05-07T17:20:57.727Z,59.50
2019-05-07T17:23:34.430Z,59.70
2019-05-07T17:25:58.678Z,60.40
2019-05-07T17:28:28.619Z,59.60
2019-05-07T17:30:58.326Z,59.50
2019-05-07T17:33:27.863Z,60.20
2019-05-07T17:35:57.454Z,60.40
2019-05-07T17:38:27.018Z,61.50
2019-05-07T17:41:09.165Z,61.80
2019-05-07T17:43:27.800Z,61.90
2019-05-07T17:45:57.378Z,62.80
2019-05-07T17:48:26.928Z,63.90
2019-05-07T17:51:18.174Z,65.00
2019-05-07T17:53:57.601Z,65.40
2019-05-07T17:56:18.966Z,65.90
2019-05-07T17:58:48.492Z,66.70
2019-05-07T18:01:21.687Z,67.10
2019-05-07T18:03:52.007Z,67.60
2019-05-07T18:06:21.585Z,68.30
2019-05-07T18:08:51.999Z,68.70
2019-05-07T18:11:24.187Z,69.60
2019-05-07T18:13:53.134Z,70.40
2019-05-07T18:16:32.585Z,71.40
2019-05-07T18:19:02.251Z,72.40
2019-05-07T18:21:32.574Z,73.10
2019-05-07T18:24:13.299Z,73.80
2019-05-07T18:26:33.918Z,74.20
2019-05-07T18:29:03.523Z,75.20
2019-05-07T18:31:47.548Z,76.00
2019-05-07T18:34:17.058Z,77.30
2019-05-07T18:36:46.690Z,80.10
2019-05-07T18:39:16.192Z,80.50
2019-05-07T18:41:45.744Z,81.10
2019-05-07T18:44:16.101Z,83.20
2019-05-07T18:46:45.832Z,83.90
2019-05-07T18:49:15.382Z,85.60
2019-05-07T18:51:44.942Z,87.50
2019-05-07T18:54:26.317Z,88.60
2019-05-07T18:56:45.853Z,90.00
2019-05-07T18:59:16.081Z,90.60
2019-05-07T19:01:45.703Z,91.30
2019-05-07T19:04:15.251Z,91.50
2019-05-07T19:06:44.807Z,92.40
2019-05-07T19:09:14.451Z,92.80
2019-05-07T19:11:44.039Z,94.00
2019-05-07T19:14:13.615Z,95.50
2019-05-07T19:16:43.239Z,96.20
2019-05-07T19:19:12.973Z,97.50
2019-05-07T19:21:42.553Z,99.90
2019-05-07T19:24:12.135Z,99.90
2019-05-07T19:26:42.118Z,99.90
2019-05-07T19:29:12.428Z,99.90
2019-05-07T19:31:42.231Z,99.90
2019-05-07T19:34:12.291Z,99.90
2019-05-07T19:36:42.406Z,99.90
2019-05-07T19:39:12.703Z,99.90
2019-05-07T19:41:43.042Z,99.90
2019-05-07T19:44:12.858Z,99.90
2019-05-07T19:46:42.369Z,99.90
2019-05-07T19:49:11.984Z,99.90
2019-05-07T19:51:42.791Z,99.90
2019-05-07T19:54:12.403Z,99.90
2019-05-07T19:56:42.596Z,99.90
2019-05-07T19:59:12.450Z,99.90
2019-05-07T20:01:49.406Z,99.90
2019-05-07T20:04:19.344Z,99.90
2019-05-07T20:06:48.954Z,99.90
2019-05-07T20:09:21.003Z,99.90
2019-05-07T20:11:52.312Z,99.90
2019-05-07T20:14:22.438Z,99.90
2019-05-07T20:16:53.142Z,99.90
2019-05-07T20:19:23.059Z,99.90
2019-05-07T20:21:52.652Z,99.90
2019-05-07T20:24:22.244Z,99.90
2019-05-07T20:26:52.665Z,99.90
2019-05-07T20:29:23.032Z,99.90
2019-05-07T20:31:53.288Z,99.90
2019-05-07T20:34:22.883Z,99.90
2019-05-07T20:36:52.439Z,99.90
2019-05-07T20:39:23.310Z,99.90
2019-05-07T20:41:53.011Z,99.90
2019-05-07T20:44:22.548Z,99.90
2019-05-07T20:46:53.616Z,99.90
2019-05-07T20:49:23.200Z,99.90
2019-05-07T20:51:52.786Z,99.90
2019-05-07T20:54:44.035Z,99.90
2019-05-07T20:57:25.694Z,99.90
2019-05-07T20:59:55.273Z,99.90
2019-05-07T21:02:24.798Z,99.90
2019-05-07T21:04:54.341Z,99.90
2019-05-07T21:07:23.911Z,99.90
2019-05-07T21:09:53.446Z,99.90
2019-05-07T21:12:23.024Z,99.90
2019-05-07T21:14:52.652Z,99.90
2019-05-07T21:17:22.718Z,99.90
2019-05-07T21:19:52.396Z,99.90
2019-05-07T21:22:22.700Z,99.90
2019-05-07T21:24:53.185Z,99.90
2019-05-07T21:27:22.935Z,99.90
2019-05-07T21:29:52.834Z,99.90
2019-05-07T21:32:23.128Z,99.90
2019-05-07T21:34:52.857Z,99.90
2019-05-07T21:37:23.042Z,99.90
2019-05-07T21:39:53.258Z,99.90
2019-05-07T21:42:23.050Z,99.90
2019-05-07T21:44:52.842Z,99.90
2019-05-07T21:47:22.433Z,99.90
2019-05-07T21:49:54.925Z,99.90
2019-05-07T21:52:24.188Z,99.90
2019-05-07T21:55:02.215Z,99.90
2019-05-07T21:57:56.096Z,99.90
2019-05-07T22:00:43.450Z,99.90
2019-05-07T22:03:15.326Z,99.90
2019-05-07T22:05:44.909Z,99.90
2019-05-07T22:08:14.449Z,99.90
2019-05-07T22:10:44.008Z,99.90
2019-05-07T22:13:13.558Z,99.90
2019-05-07T22:15:43.106Z,99.90
2019-05-07T22:18:12.678Z,99.90
2019-05-07T22:20:42.696Z,99.90
2019-05-07T22:23:12.279Z,99.90
2019-05-07T22:25:42.233Z,99.90
2019-05-07T22:28:13.375Z,99.90
2019-05-07T22:30:52.769Z,99.90
2019-05-07T22:33:30.882Z,99.90
2019-05-07T22:36:01.817Z,99.90
2019-05-07T22:38:32.379Z,99.90
2019-05-07T22:41:02.210Z,99.90
2019-05-07T22:43:31.959Z,99.90
2019-05-07T22:46:01.453Z,99.90
2019-05-07T22:48:32.474Z,99.90
2019-05-07T22:51:02.743Z,99.90
2019-05-07T22:53:32.863Z,99.90
2019-05-07T22:56:03.161Z,99.90
2019-05-07T22:58:41.866Z,99.90
2019-05-07T23:01:13.072Z,99.90
2019-05-07T23:03:43.050Z,99.90
2019-05-07T23:06:12.655Z,99.90
2019-05-07T23:08:42.598Z,99.90
2019-05-07T23:11:12.463Z,99.90
2019-05-07T23:13:42.700Z,99.90
2019-05-07T23:16:12.741Z,99.90
2019-05-07T23:18:43.056Z,99.90
2019-05-07T23:21:12.571Z,99.90
2019-05-07T23:23:42.383Z,99.90
2019-05-07T23:26:14.653Z,99.90
2019-05-07T23:28:43.123Z,99.90
2019-05-07T23:31:12.651Z,99.90
2019-05-07T23:33:42.212Z,99.90
2019-05-07T23:36:12.911Z,99.90
2019-05-07T23:38:42.733Z,99.90
2019-05-07T23:41:27.412Z,99.90
2019-05-07T23:44:13.847Z,99.90
2019-05-07T23:46:44.766Z,99.90
2019-05-07T23:49:14.649Z,99.90
2019-05-07T23:51:44.183Z,99.90
2019-05-07T23:54:13.728Z,99.90
2019-05-07T23:56:43.267Z,99.90
2019-05-07T23:59:14.909Z,99.90
